Time;durP1;ratioP1;P1;durP2;ratioP2;P2;SDS_P1;SDS_P2;PMS_P1;PMS_P2;Temp;Humidity;BMP_temperature;BMP_pressure;BME280_temperature;BME280_humidity;BME280_pressure;Samples;Min_cycle;Max_cycle;Signal;HPM_P1;HPM_P2
2024/03/25 00:00:15;;;;;;;3.40;1.77;;;;;;;;;;4986923;28;20018;-61
2024/03/25 00:02:41;;;;;;;3.00;1.88;;;;;;;;;;4988634;28;20023;-62
2024/03/25 00:05:09;;;;;;;3.53;1.85;;;;;;;;;;4998884;28;20049;-60
2024/03/25 00:07:35;;;;;;;2.33;1.60;;;;;;;;;;4987654;28;20037;-64
2024/03/25 00:10:00;;;;;;;2.50;1.60;;;;;;;;;;4999089;28;20113;-61
2024/03/25 00:12:26;;;;;;;2.42;1.80;;;;;;;;;;4993188;28;20041;-60
2024/03/25 00:14:51;;;;;;;2.50;1.65;;;;;;;;;;4999092;28;20413;-63
2024/03/25 00:17:16;;;;;;;3.05;1.75;;;;;;;;;;4992661;28;20332;-60
2024/03/25 00:19:42;;;;;;;2.13;1.55;;;;;;;;;;5006539;28;20083;-61
2024/03/25 00:22:07;;;;;;;3.15;1.40;;;;;;;;;;4992759;28;20105;-64
2024/03/25 00:24:33;;;;;;;2.70;1.42;;;;;;;;;;4989825;28;20034;-62
2024/03/25 00:26:58;;;;;;;2.30;1.58;;;;;;;;;;4990398;28;20092;-60
2024/03/25 00:29:23;;;;;;;2.70;1.65;;;;;;;;;;4992080;28;20026;-61
2024/03/25 00:31:49;;;;;;;3.08;1.67;;;;;;;;;;5001675;28;20466;-61
2024/03/25 00:34:14;;;;;;;2.67;1.50;;;;;;;;;;4991919;28;20165;-63
2024/03/25 00:36:39;;;;;;;2.63;1.50;;;;;;;;;;4995950;28;20018;-62
2024/03/25 00:39:05;;;;;;;2.30;1.38;;;;;;;;;;5021065;28;20080;-61
2024/03/25 00:41:30;;;;;;;3.10;1.70;;;;;;;;;;4987928;28;20032;-60
2024/03/25 00:43:55;;;;;;;2.45;1.40;;;;;;;;;;4988701;28;20026;-60
2024/03/25 00:46:21;;;;;;;3.15;1.50;;;;;;;;;;4989498;28;20034;-61
2024/03/25 00:48:46;;;;;;;2.65;1.73;;;;;;;;;;5001477;28;20022;-61
2024/03/25 00:51:11;;;;;;;2.58;1.50;;;;;;;;;;4993290;28;20014;-61
2024/03/25 00:53:37;;;;;;;2.50;1.48;;;;;;;;;;4990606;28;20022;-61
2024/03/25 00:56:02;;;;;;;1.85;1.33;;;;;;;;;;4989853;28;20399;-61
2024/03/25 00:58:28;;;;;;;2.50;1.50;;;;;;;;;;4988891;28;20061;-60
2024/03/25 01:00:53;;;;;;;2.00;1.33;;;;;;;;;;4999154;28;20102;-60
2024/03/25 01:03:18;;;;;;;2.13;1.48;;;;;;;;;;4995030;28;20055;-61
2024/03/25 01:05:44;;;;;;;2.20;1.30;;;;;;;;;;4991538;28;20042;-62
2024/03/25 01:08:10;;;;;;;2.30;1.30;;;;;;;;;;4988967;28;20025;-61
2024/03/25 01:10:36;;;;;;;2.38;1.30;;;;;;;;;;4988389;28;20026;-61
2024/03/25 01:13:02;;;;;;;2.17;1.42;;;;;;;;;;4987697;28;20017;-61
2024/03/25 01:15:27;;;;;;;2.53;1.50;;;;;;;;;;4991051;28;20399;-61
2024/03/25 01:17:52;;;;;;;3.38;1.48;;;;;;;;;;4989436;28;20053;-61
2024/03/25 01:20:18;;;;;;;2.83;1.40;;;;;;;;;;4988814;28;20034;-59
2024/03/25 01:22:43;;;;;;;1.75;1.20;;;;;;;;;;4998001;28;20101;-60
2024/03/25 01:25:08;;;;;;;2.03;1.40;;;;;;;;;;4994863;28;20561;-60
2024/03/25 01:27:34;;;;;;;1.92;1.13;;;;;;;;;;4988672;28;20068;-64
2024/03/25 01:30:00;;;;;;;1.90;1.05;;;;;;;;;;4987227;28;20030;-62
2024/03/25 01:32:25;;;;;;;2.10;1.25;;;;;;;;;;4988376;28;20050;-61
2024/03/25 01:34:50;;;;;;;2.80;1.13;;;;;;;;;;4992426;28;20034;-61
2024/03/25 01:37:16;;;;;;;2.55;1.10;;;;;;;;;;4990786;28;20486;-61
2024/03/25 01:39:41;;;;;;;2.80;1.27;;;;;;;;;;5000662;28;20030;-63
2024/03/25 01:42:06;;;;;;;1.90;1.15;;;;;;;;;;5011408;28;20034;-63
2024/03/25 01:44:32;;;;;;;1.80;1.10;;;;;;;;;;4993773;28;20034;-62
2024/03/25 01:46:57;;;;;;;1.75;1.08;;;;;;;;;;4988671;28;20137;-61
2024/03/25 01:49:22;;;;;;;2.28;1.10;;;;;;;;;;4988946;28;20026;-63
2024/03/25 01:51:48;;;;;;;2.17;1.10;;;;;;;;;;4988196;28;20106;-66
2024/03/25 01:54:16;;;;;;;1.55;0.85;;;;;;;;;;4987635;28;20034;-62
2024/03/25 01:56:42;;;;;;;1.67;0.95;;;;;;;;;;4991154;28;20530;-64
2024/03/25 01:59:07;;;;;;;1.73;1.00;;;;;;;;;;4998582;28;20113;-63
2024/03/25 02:01:32;;;;;;;1.42;1.00;;;;;;;;;;4985763;28;20078;-61
2024/03/25 02:03:57;;;;;;;1.83;1.20;;;;;;;;;;4991926;28;20029;-60
2024/03/25 02:06:24;;;;;;;1.95;1.08;;;;;;;;;;4988558;28;20503;-60
2024/03/25 02:08:49;;;;;;;1.48;1.00;;;;;;;;;;5006134;28;20117;-61
2024/03/25 02:11:14;;;;;;;2.13;1.20;;;;;;;;;;4999901;28;20077;-60
2024/03/25 02:13:40;;;;;;;2.05;1.00;;;;;;;;;;4997232;28;20038;-60
2024/03/25 02:16:05;;;;;;;1.63;1.02;;;;;;;;;;4996690;28;20119;-64
2024/03/25 02:18:30;;;;;;;2.00;1.10;;;;;;;;;;4998875;28;20403;-62
2024/03/25 02:20:56;;;;;;;1.63;1.02;;;;;;;;;;5001461;28;20038;-64
2024/03/25 02:23:21;;;;;;;1.80;0.90;;;;;;;;;;4988447;28;20035;-60
2024/03/25 02:25:50;;;;;;;2.70;1.00;;;;;;;;;;4991329;28;20034;-60
2024/03/25 02:28:16;;;;;;;1.90;0.90;;;;;;;;;;4987079;28;20117;-62
2024/03/25 02:30:41;;;;;;;1.60;1.00;;;;;;;;;;4988427;28;20110;-61
2024/03/25 02:33:06;;;;;;;1.80;0.80;;;;;;;;;;4986200;28;20041;-61
2024/03/25 02:35:32;;;;;;;1.60;0.95;;;;;;;;;;4993482;28;20352;-64
2024/03/25 02:37:57;;;;;;;1.52;0.93;;;;;;;;;;4987739;28;20038;-61
2024/03/25 02:40:22;;;;;;;1.30;0.80;;;;;;;;;;5002369;28;20057;-59
2024/03/25 02:42:48;;;;;;;1.58;0.75;;;;;;;;;;4994883;28;20026;-64
2024/03/25 02:45:13;;;;;;;1.58;1.00;;;;;;;;;;5004081;28;20038;-62
2024/03/25 02:47:38;;;;;;;1.58;0.80;;;;;;;;;;5006317;28;20042;-64
2024/03/25 02:50:04;;;;;;;2.35;0.77;;;;;;;;;;4987016;28;20043;-62
2024/03/25 02:52:29;;;;;;;1.80;0.80;;;;;;;;;;5002958;28;20504;-61
2024/03/25 02:54:54;;;;;;;1.38;0.80;;;;;;;;;;4994734;28;20049;-59
2024/03/25 02:57:20;;;;;;;1.13;0.65;;;;;;;;;;4999231;28;20141;-62
2024/03/25 02:59:45;;;;;;;1.40;0.80;;;;;;;;;;4990071;28;20034;-61
2024/03/25 03:02:11;;;;;;;1.67;0.90;;;;;;;;;;4985985;28;20030;-61
2024/03/25 03:04:36;;;;;;;1.27;0.70;;;;;;;;;;4990879;28;20046;-62
2024/03/25 03:07:01;;;;;;;1.30;0.70;;;;;;;;;;4989407;28;20064;-63
2024/03/25 03:09:26;;;;;;;1.63;0.70;;;;;;;;;;4998811;28;22215;-62
2024/03/25 03:11:52;;;;;;;1.35;0.73;;;;;;;;;;4996144;28;20030;-61
2024/03/25 03:14:17;;;;;;;1.95;0.60;;;;;;;;;;4987549;28;20043;-63
2024/03/25 03:16:42;;;;;;;1.48;0.70;;;;;;;;;;4990106;28;20026;-64
2024/03/25 03:19:08;;;;;;;1.05;0.68;;;;;;;;;;4994426;28;20049;-65
2024/03/25 03:21:33;;;;;;;0.95;0.70;;;;;;;;;;5002479;28;20034;-61
2024/03/25 03:23:58;;;;;;;1.35;0.63;;;;;;;;;;4987842;28;20034;-64
2024/03/25 03:26:27;;;;;;;1.98;0.70;;;;;;;;;;4990314;28;20049;-60
2024/03/25 03:28:55;;;;;;;1.52;0.50;;;;;;;;;;4986907;28;20108;-62
2024/03/25 03:31:23;;;;;;;1.48;0.80;;;;;;;;;;4991936;28;20050;-61
2024/03/25 03:33:49;;;;;;;0.77;0.45;;;;;;;;;;4996383;28;20119;-62
2024/03/25 03:36:15;;;;;;;1.15;0.63;;;;;;;;;;4997602;28;20139;-63
2024/03/25 03:38:40;;;;;;;1.70;0.85;;;;;;;;;;4996585;28;20060;-62
2024/03/25 03:41:06;;;;;;;1.00;0.60;;;;;;;;;;4986824;28;20514;-62
2024/03/25 03:43:32;;;;;;;1.15;0.73;;;;;;;;;;4994963;28;20038;-63
2024/03/25 03:45:57;;;;;;;1.05;0.77;;;;;;;;;;4997450;28;20038;-65
2024/03/25 03:48:22;;;;;;;1.38;0.70;;;;;;;;;;5010654;28;20038;-61
2024/03/25 03:50:47;;;;;;;1.60;0.60;;;;;;;;;;5007370;28;20038;-62
2024/03/25 03:53:13;;;;;;;0.80;0.50;;;;;;;;;;4990408;28;20044;-62
2024/03/25 03:55:38;;;;;;;1.60;0.70;;;;;;;;;;5000049;28;20026;-62
2024/03/25 03:58:04;;;;;;;0.85;0.52;;;;;;;;;;4992433;28;20034;-62
2024/03/25 04:00:29;;;;;;;1.10;0.40;;;;;;;;;;4990725;28;20065;-62
2024/03/25 04:02:54;;;;;;;1.15;0.50;;;;;;;;;;4991218;28;20494;-60
2024/03/25 04:05:20;;;;;;;2.03;0.50;;;;;;;;;;4990780;28;20073;-60
2024/03/25 04:07:46;;;;;;;1.25;0.60;;;;;;;;;;4991685;28;20137;-60
2024/03/25 04:10:12;;;;;;;1.15;0.60;;;;;;;;;;4994857;28;20122;-61
2024/03/25 04:12:38;;;;;;;1.10;0.60;;;;;;;;;;4999406;28;20038;-63
2024/03/25 04:15:04;;;;;;;1.05;0.57;;;;;;;;;;4989692;28;20090;-62
2024/03/25 04:17:29;;;;;;;2.35;0.50;;;;;;;;;;4997513;28;20034;-59
2024/03/25 04:19:54;;;;;;;1.52;0.82;;;;;;;;;;4998939;28;20046;-59
2024/03/25 04:22:20;;;;;;;1.83;0.70;;;;;;;;;;4999472;28;20409;-61
2024/03/25 04:24:45;;;;;;;1.13;0.60;;;;;;;;;;4990043;28;20568;-62
2024/03/25 04:27:10;;;;;;;1.30;0.40;;;;;;;;;;4995890;28;20081;-61
2024/03/25 04:29:36;;;;;;;1.33;0.55;;;;;;;;;;4990417;28;20633;-64
2024/03/25 04:32:02;;;;;;;1.20;0.60;;;;;;;;;;4988457;28;20542;-59
2024/03/25 04:34:27;;;;;;;0.77;0.47;;;;;;;;;;4997661;28;20531;-59
2024/03/25 04:36:53;;;;;;;1.00;0.50;;;;;;;;;;5005596;28;20034;-60
2024/03/25 04:39:18;;;;;;;0.95;0.40;;;;;;;;;;5009053;28;20048;-60
2024/03/25 04:41:44;;;;;;;0.90;0.50;;;;;;;;;;4997566;28;20045;-59
2024/03/25 04:44:09;;;;;;;3.85;0.60;;;;;;;;;;5005261;28;20053;-63
2024/03/25 04:46:35;;;;;;;2.47;0.68;;;;;;;;;;5002023;28;20062;-60
2024/03/25 04:49:00;;;;;;;3.67;0.70;;;;;;;;;;5009013;28;20080;-60
2024/03/25 04:51:26;;;;;;;2.90;0.80;;;;;;;;;;4990419;28;20034;-61
2024/03/25 04:53:52;;;;;;;3.40;0.60;;;;;;;;;;4989075;28;20042;-60
2024/03/25 04:56:18;;;;;;;4.13;0.63;;;;;;;;;;5000053;28;21775;-61
2024/03/25 04:58:43;;;;;;;8.68;1.15;;;;;;;;;;5000041;28;20045;-62
2024/03/25 05:01:08;;;;;;;4.60;0.90;;;;;;;;;;5001319;28;20088;-61
2024/03/25 05:03:36;;;;;;;6.10;1.30;;;;;;;;;;4998632;28;20084;-62
2024/03/25 05:06:01;;;;;;;6.35;0.90;;;;;;;;;;5003372;28;20049;-63
2024/03/25 05:08:26;;;;;;;9.88;1.63;;;;;;;;;;5001590;28;20486;-63
2024/03/25 05:10:52;;;;;;;5.45;1.08;;;;;;;;;;4990334;28;20503;-65
2024/03/25 05:13:17;;;;;;;6.78;1.23;;;;;;;;;;4999295;28;20041;-62
2024/03/25 05:15:49;;;;;;;10.52;1.00;;;;;;;;;;4994632;28;20042;-63
2024/03/25 05:18:14;;;;;;;4.47;1.00;;;;;;;;;;4992324;28;20030;-63
2024/03/25 05:20:40;;;;;;;6.45;1.08;;;;;;;;;;5005788;28;20795;-61
2024/03/25 05:23:05;;;;;;;6.70;0.90;;;;;;;;;;4998318;28;20466;-62
2024/03/25 05:25:30;;;;;;;6.93;1.40;;;;;;;;;;5003697;28;20061;-60
2024/03/25 05:27:56;;;;;;;6.68;1.33;;;;;;;;;;5004145;28;20048;-61
2024/03/25 05:30:22;;;;;;;7.78;1.17;;;;;;;;;;4999036;28;20038;-61
2024/03/25 05:32:48;;;;;;;5.05;1.90;;;;;;;;;;4991981;28;20026;-60
2024/03/25 05:35:13;;;;;;;7.40;1.20;;;;;;;;;;4998483;28;20706;-60
2024/03/25 05:37:39;;;;;;;4.65;1.10;;;;;;;;;;4998030;28;20124;-60
2024/03/25 05:40:04;;;;;;;7.10;1.30;;;;;;;;;;4998970;28;20514;-61
2024/03/25 05:42:29;;;;;;;7.40;1.40;;;;;;;;;;5006681;28;20034;-60
2024/03/25 05:44:55;;;;;;;6.53;1.30;;;;;;;;;;5011390;28;20505;-61
2024/03/25 05:47:20;;;;;;;5.97;1.20;;;;;;;;;;5013684;28;20057;-61
2024/03/25 05:49:46;;;;;;;6.85;1.30;;;;;;;;;;5020353;28;20038;-62
2024/03/25 05:52:11;;;;;;;6.85;1.10;;;;;;;;;;5000786;28;20580;-61
2024/03/25 05:54:37;;;;;;;6.90;1.40;;;;;;;;;;5001794;28;20049;-62
2024/03/25 05:57:02;;;;;;;9.20;1.50;;;;;;;;;;5000465;28;20065;-60
2024/03/25 05:59:27;;;;;;;8.43;1.27;;;;;;;;;;5001297;28;20110;-60
2024/03/25 06:01:53;;;;;;;8.55;1.52;;;;;;;;;;5004930;28;20053;-60
2024/03/25 06:04:19;;;;;;;7.43;1.23;;;;;;;;;;5000157;28;20100;-60
2024/03/25 06:06:45;;;;;;;6.88;1.60;;;;;;;;;;4997279;28;20050;-59
2024/03/25 06:09:10;;;;;;;8.93;1.75;;;;;;;;;;5005075;28;20033;-60
2024/03/25 06:11:35;;;;;;;5.10;1.25;;;;;;;;;;5000906;28;20476;-61
2024/03/25 06:14:01;;;;;;;8.45;1.40;;;;;;;;;;5000202;28;20386;-60
2024/03/25 06:16:26;;;;;;;7.28;1.63;;;;;;;;;;4995982;28;20560;-61
2024/03/25 06:18:51;;;;;;;7.53;1.50;;;;;;;;;;4998239;28;20153;-64
2024/03/25 06:21:16;;;;;;;44.95;6.32;;;;;;;;;;4998334;28;20046;-60
2024/03/25 06:23:42;;;;;;;9.27;2.20;;;;;;;;;;4993615;28;20060;-60
2024/03/25 06:26:07;;;;;;;5.72;2.08;;;;;;;;;;4990729;28;20066;-63
2024/03/25 06:28:32;;;;;;;5.85;1.30;;;;;;;;;;4994577;28;20524;-62
2024/03/25 06:36:26;;;;;;;8.43;1.60;;;;;;;;;;5001803;28;20068;-61
2024/03/25 06:38:51;;;;;;;7.90;1.52;;;;;;;;;;5000883;28;20030;-60
2024/03/25 06:41:16;;;;;;;5.75;1.33;;;;;;;;;;4993042;28;20470;-61
2024/03/25 06:43:41;;;;;;;7.38;1.40;;;;;;;;;;4997493;28;20045;-61
2024/03/25 06:46:07;;;;;;;6.43;1.55;;;;;;;;;;4998576;28;20490;-61
2024/03/25 06:48:34;;;;;;;6.10;1.67;;;;;;;;;;4999010;28;20139;-61
2024/03/25 06:50:59;;;;;;;4.80;1.40;;;;;;;;;;5003844;28;20037;-62
2024/03/25 06:53:25;;;;;;;8.30;1.58;;;;;;;;;;5001136;28;20145;-61
2024/03/25 06:55:53;;;;;;;6.80;1.45;;;;;;;;;;4998580;28;20044;-65
2024/03/25 06:58:19;;;;;;;5.00;1.50;;;;;;;;;;4995953;28;21238;-62
2024/03/25 07:00:44;;;;;;;5.97;1.30;;;;;;;;;;5000255;28;20026;-61
2024/03/25 07:03:09;;;;;;;5.60;1.20;;;;;;;;;;4999126;28;20066;-62
2024/03/25 07:05:35;;;;;;;5.70;1.50;;;;;;;;;;4998570;28;20039;-59
2024/03/25 07:08:00;;;;;;;4.63;1.40;;;;;;;;;;4997012;28;20034;-60
2024/03/25 07:10:25;;;;;;;4.93;1.73;;;;;;;;;;4999220;28;20034;-62
2024/03/25 07:12:51;;;;;;;4.13;1.50;;;;;;;;;;4999851;28;20018;-62
2024/03/25 07:15:16;;;;;;;5.30;1.23;;;;;;;;;;4999037;28;20013;-60
2024/03/25 07:17:41;;;;;;;4.68;1.50;;;;;;;;;;4998462;28;20018;-61
2024/03/25 07:20:08;;;;;;;5.00;1.40;;;;;;;;;;4998950;28;20041;-61
2024/03/25 07:22:33;;;;;;;3.55;1.25;;;;;;;;;;5000056;28;20025;-61
2024/03/25 07:24:59;;;;;;;3.00;1.30;;;;;;;;;;4999981;28;20031;-60
2024/03/25 07:27:24;;;;;;;6.63;1.45;;;;;;;;;;4994225;28;20454;-62
2024/03/25 07:29:51;;;;;;;5.40;1.48;;;;;;;;;;4997965;28;20021;-65
2024/03/25 07:32:16;;;;;;;5.03;1.33;;;;;;;;;;4995628;28;20029;-60
2024/03/25 07:34:41;;;;;;;5.05;1.60;;;;;;;;;;4996031;28;20905;-60
2024/03/25 07:37:07;;;;;;;3.60;1.20;;;;;;;;;;5001676;28;20167;-61
2024/03/25 07:39:32;;;;;;;6.78;1.52;;;;;;;;;;5001498;28;20431;-61
2024/03/25 07:41:59;;;;;;;3.42;1.35;;;;;;;;;;4998917;28;20043;-61
2024/03/25 07:44:24;;;;;;;3.55;1.33;;;;;;;;;;4999354;28;20048;-62
2024/03/25 07:46:50;;;;;;;3.95;1.33;;;;;;;;;;5000992;28;20064;-62
2024/03/25 07:49:15;;;;;;;3.63;1.20;;;;;;;;;;5000848;28;20103;-62
2024/03/25 07:51:40;;;;;;;5.00;1.58;;;;;;;;;;5001091;28;20477;-61
2024/03/25 07:54:06;;;;;;;3.88;1.23;;;;;;;;;;4994051;28;20052;-62
2024/03/25 07:56:32;;;;;;;4.55;1.30;;;;;;;;;;5002229;28;20029;-62
2024/03/25 07:58:59;;;;;;;3.85;1.45;;;;;;;;;;4999629;28;20018;-62
2024/03/25 08:01:25;;;;;;;2.78;1.17;;;;;;;;;;4999924;28;20040;-62
2024/03/25 08:03:50;;;;;;;3.42;1.30;;;;;;;;;;5002520;28;20014;-62
2024/03/25 08:06:15;;;;;;;3.28;1.20;;;;;;;;;;5000798;28;20461;-61
2024/03/25 08:08:41;;;;;;;4.88;1.58;;;;;;;;;;4999793;28;20096;-61
2024/03/25 08:11:07;;;;;;;4.32;1.40;;;;;;;;;;5003092;28;20489;-62
2024/03/25 08:13:32;;;;;;;3.33;1.70;;;;;;;;;;5001744;28;20052;-62
2024/03/25 08:15:58;;;;;;;4.72;1.52;;;;;;;;;;5000908;28;20046;-62
2024/03/25 08:18:23;;;;;;;5.32;1.50;;;;;;;;;;5000752;28;20041;-61
2024/03/25 08:20:48;;;;;;;4.20;1.40;;;;;;;;;;4998435;28;20024;-60
2024/03/25 08:23:14;;;;;;;3.50;1.52;;;;;;;;;;5004017;28;20093;-60
2024/03/25 08:25:39;;;;;;;3.80;1.50;;;;;;;;;;5002373;28;20077;-60
2024/03/25 08:28:04;;;;;;;2.90;1.20;;;;;;;;;;4999805;28;20026;-61
2024/03/25 08:30:30;;;;;;;3.13;1.33;;;;;;;;;;4998916;28;20837;-61
2024/03/25 08:32:55;;;;;;;2.97;1.20;;;;;;;;;;5006261;28;20042;-59
2024/03/25 08:35:21;;;;;;;3.90;1.63;;;;;;;;;;5002795;28;20049;-62
2024/03/25 08:37:46;;;;;;;2.97;1.52;;;;;;;;;;5003592;28;20042;-65
2024/03/25 08:40:12;;;;;;;4.57;1.50;;;;;;;;;;5003302;28;20434;-60
2024/03/25 08:42:37;;;;;;;3.17;1.42;;;;;;;;;;5007572;28;20045;-62
2024/03/25 08:45:02;;;;;;;5.55;1.50;;;;;;;;;;5003163;28;20041;-60
2024/03/25 08:47:28;;;;;;;3.78;1.50;;;;;;;;;;5005539;28;20129;-62
2024/03/25 08:49:53;;;;;;;3.90;1.63;;;;;;;;;;5001192;28;20072;-62
2024/03/25 08:52:18;;;;;;;3.78;1.70;;;;;;;;;;5003599;28;20178;-63
2024/03/25 08:54:44;;;;;;;3.72;1.55;;;;;;;;;;5012535;28;20067;-62
2024/03/25 08:57:09;;;;;;;2.63;1.20;;;;;;;;;;5001363;28;20127;-65
2024/03/25 08:59:35;;;;;;;2.80;1.35;;;;;;;;;;4999662;28;20038;-62
2024/03/25 09:02:01;;;;;;;5.07;1.73;;;;;;;;;;5006238;28;20502;-61
2024/03/25 09:04:26;;;;;;;3.38;1.50;;;;;;;;;;4999527;28;20034;-61
2024/03/25 09:06:52;;;;;;;3.42;1.60;;;;;;;;;;4999259;28;20073;-60
2024/03/25 09:12:01;;;;;;;2.63;1.52;;;;;;;;;;5006044;28;20087;-60
2024/03/25 09:14:27;;;;;;;3.33;1.40;;;;;;;;;;5007383;28;20434;-62
2024/03/25 09:16:52;;;;;;;2.95;1.58;;;;;;;;;;5006228;28;20099;-61
2024/03/25 09:19:17;;;;;;;3.90;1.48;;;;;;;;;;5001865;28;20038;-61
2024/03/25 09:21:42;;;;;;;3.50;1.70;;;;;;;;;;5001352;28;20038;-61
2024/03/25 09:24:08;;;;;;;2.90;1.52;;;;;;;;;;5039316;28;20052;-61
2024/03/25 09:26:33;;;;;;;3.03;1.70;;;;;;;;;;5017253;28;20077;-59
2024/03/25 09:28:59;;;;;;;3.38;1.38;;;;;;;;;;5003069;28;20031;-60
2024/03/25 09:31:24;;;;;;;4.15;1.83;;;;;;;;;;4987400;28;20042;-63
2024/03/25 09:33:50;;;;;;;2.95;1.60;;;;;;;;;;4993435;28;20124;-61
2024/03/25 09:36:15;;;;;;;3.10;1.65;;;;;;;;;;5007195;28;20037;-63
2024/03/25 09:38:40;;;;;;;3.17;1.67;;;;;;;;;;5005335;28;20042;-65
2024/03/25 09:41:07;;;;;;;2.58;1.63;;;;;;;;;;4986991;28;20038;-61
2024/03/25 09:43:40;;;;;;;4.13;2.00;;;;;;;;;;4999861;28;20048;-65
2024/03/25 09:46:05;;;;;;;3.15;1.50;;;;;;;;;;4992725;28;20053;-62
2024/03/25 09:48:31;;;;;;;2.85;1.60;;;;;;;;;;5001508;28;20378;-63
2024/03/25 09:50:56;;;;;;;2.85;1.50;;;;;;;;;;4997197;28;20045;-61
2024/03/25 09:53:22;;;;;;;2.28;1.45;;;;;;;;;;5005183;28;20505;-61
2024/03/25 09:55:47;;;;;;;3.83;1.52;;;;;;;;;;4999675;28;20069;-66
2024/03/25 09:58:13;;;;;;;2.92;1.60;;;;;;;;;;5019777;28;20400;-62
2024/03/25 10:00:39;;;;;;;3.25;1.63;;;;;;;;;;5000792;28;20470;-64
2024/03/25 10:03:06;;;;;;;3.20;1.85;;;;;;;;;;5005657;28;20753;-61
2024/03/25 10:05:31;;;;;;;2.83;1.55;;;;;;;;;;5001679;28;20038;-61
2024/03/25 10:07:56;;;;;;;3.08;1.75;;;;;;;;;;5003644;28;20482;-62
2024/03/25 10:10:22;;;;;;;3.90;1.60;;;;;;;;;;4999842;28;20049;-64
2024/03/25 10:12:47;;;;;;;4.45;1.60;;;;;;;;;;5001976;28;20037;-60
2024/03/25 10:15:15;;;;;;;8.05;2.00;;;;;;;;;;5001394;28;20034;-60
2024/03/25 10:17:41;;;;;;;2.53;1.42;;;;;;;;;;5005003;28;20042;-62
2024/03/25 10:20:09;;;;;;;3.25;1.60;;;;;;;;;;4999494;28;20039;-63
2024/03/25 10:22:44;;;;;;;4.15;1.75;;;;;;;;;;5004919;28;20823;-62
2024/03/25 10:25:27;;;;;;;5.43;1.92;;;;;;;;;;5004079;28;20038;-61
2024/03/25 10:27:55;;;;;;;3.53;2.00;;;;;;;;;;5003078;28;20034;-62
2024/03/25 10:30:20;;;;;;;4.57;1.80;;;;;;;;;;4996740;28;20701;-63
2024/03/25 10:32:46;;;;;;;5.15;1.65;;;;;;;;;;4999985;28;20038;-61
2024/03/25 10:35:12;;;;;;;4.30;1.80;;;;;;;;;;5003708;28;20037;-62
2024/03/25 10:37:38;;;;;;;4.50;1.70;;;;;;;;;;4999407;28;20038;-65
2024/03/25 10:40:04;;;;;;;2.58;1.52;;;;;;;;;;5005017;28;20033;-62
2024/03/25 10:42:29;;;;;;;4.50;1.85;;;;;;;;;;4999191;28;20099;-64
2024/03/25 10:44:54;;;;;;;3.40;1.90;;;;;;;;;;4999471;28;20140;-64
2024/03/25 10:47:20;;;;;;;2.25;1.50;;;;;;;;;;5003424;28;20046;-64
2024/03/25 10:49:49;;;;;;;4.65;1.92;;;;;;;;;;5003151;28;20557;-63
2024/03/25 10:52:14;;;;;;;4.97;1.67;;;;;;;;;;5000770;28;20038;-63
2024/03/25 10:54:40;;;;;;;5.40;1.88;;;;;;;;;;4999065;28;20038;-64
2024/03/25 10:57:05;;;;;;;5.15;1.60;;;;;;;;;;4990997;28;20038;-63
2024/03/25 10:59:30;;;;;;;4.10;1.73;;;;;;;;;;5005339;28;20030;-64
2024/03/25 11:01:56;;;;;;;4.03;1.73;;;;;;;;;;4995846;28;20038;-64
2024/03/25 11:04:21;;;;;;;4.40;1.55;;;;;;;;;;5005041;28;20034;-63
2024/03/25 11:06:47;;;;;;;2.50;1.33;;;;;;;;;;5002353;28;20034;-63
2024/03/25 11:09:25;;;;;;;3.65;1.60;;;;;;;;;;5005025;28;20030;-64
2024/03/25 11:11:51;;;;;;;2.60;1.60;;;;;;;;;;5004337;28;20038;-63
2024/03/25 11:14:16;;;;;;;3.42;1.67;;;;;;;;;;5005832;28;20034;-64
2024/03/25 11:16:41;;;;;;;3.33;1.50;;;;;;;;;;5004465;28;20796;-66
2024/03/25 11:19:10;;;;;;;3.30;1.60;;;;;;;;;;5000194;28;20066;-62
2024/03/25 11:21:35;;;;;;;4.53;1.65;;;;;;;;;;5001255;28;20118;-64
2024/03/25 11:24:06;;;;;;;2.80;1.58;;;;;;;;;;5000227;28;20185;-62
2024/03/25 11:26:35;;;;;;;3.22;1.75;;;;;;;;;;4997933;28;20481;-63
2024/03/25 11:29:00;;;;;;;4.28;1.88;;;;;;;;;;5006856;28;20034;-64
2024/03/25 11:31:26;;;;;;;3.85;1.75;;;;;;;;;;5005191;28;20437;-64
2024/03/25 11:33:51;;;;;;;23.25;3.90;;;;;;;;;;5032420;28;20033;-62
2024/03/25 11:36:18;;;;;;;9.68;2.08;;;;;;;;;;5000998;28;20014;-64
2024/03/25 11:38:44;;;;;;;8.02;1.70;;;;;;;;;;5000722;28;20025;-62
2024/03/25 11:41:12;;;;;;;4.82;1.70;;;;;;;;;;4989691;28;20380;-62
2024/03/25 11:43:37;;;;;;;4.05;1.55;;;;;;;;;;5001826;28;20069;-62
2024/03/25 11:46:03;;;;;;;4.47;1.60;;;;;;;;;;5003660;28;20033;-61
2024/03/25 11:48:32;;;;;;;4.38;1.73;;;;;;;;;;4999594;28;20044;-61
2024/03/25 11:50:57;;;;;;;6.35;1.85;;;;;;;;;;5016230;28;20136;-61
2024/03/25 11:53:23;;;;;;;6.07;1.88;;;;;;;;;;4997535;28;20517;-61
2024/03/25 11:55:48;;;;;;;3.83;1.60;;;;;;;;;;4998810;28;20022;-60
2024/03/25 11:58:16;;;;;;;6.28;1.50;;;;;;;;;;5001426;28;20046;-62
2024/03/25 12:00:44;;;;;;;7.65;1.83;;;;;;;;;;5001057;28;20022;-65
2024/03/25 12:03:11;;;;;;;6.25;1.92;;;;;;;;;;5000256;28;20025;-63
2024/03/25 12:05:36;;;;;;;3.78;1.75;;;;;;;;;;4991825;28;20045;-62
2024/03/25 12:08:02;;;;;;;5.55;1.75;;;;;;;;;;5004789;28;20034;-62
2024/03/25 12:13:11;;;;;;;5.43;1.85;;;;;;;;;;5007804;28;20887;-60
2024/03/25 12:15:36;;;;;;;4.45;1.55;;;;;;;;;;5007677;28;20125;-60
2024/03/25 12:18:02;;;;;;;7.07;1.90;;;;;;;;;;4997431;28;20038;-61
2024/03/25 12:20:27;;;;;;;3.92;1.55;;;;;;;;;;4992197;28;20044;-61
2024/03/25 12:22:52;;;;;;;5.20;1.70;;;;;;;;;;4993791;28;20125;-61
2024/03/25 12:25:18;;;;;;;4.72;1.77;;;;;;;;;;4991301;28;20042;-61
2024/03/25 12:27:45;;;;;;;3.60;1.65;;;;;;;;;;4989304;28;20122;-65
2024/03/25 12:30:10;;;;;;;4.45;1.80;;;;;;;;;;4992964;28;20080;-61
2024/03/25 12:32:42;;;;;;;4.97;1.60;;;;;;;;;;5002453;28;20050;-60
2024/03/25 12:35:17;;;;;;;5.20;1.80;;;;;;;;;;5008662;28;20056;-63
2024/03/25 12:37:44;;;;;;;5.07;1.70;;;;;;;;;;4999395;28;20030;-66
2024/03/25 12:40:10;;;;;;;3.67;1.80;;;;;;;;;;5006074;28;20034;-61
2024/03/25 12:42:35;;;;;;;3.67;1.90;;;;;;;;;;4999216;28;20038;-60
2024/03/25 12:45:01;;;;;;;3.83;1.88;;;;;;;;;;4992003;28;20495;-61
2024/03/25 12:47:26;;;;;;;2.85;1.52;;;;;;;;;;5002343;28;20490;-61
2024/03/25 12:49:52;;;;;;;3.10;1.80;;;;;;;;;;5007394;28;20480;-61
2024/03/25 12:52:17;;;;;;;5.03;1.77;;;;;;;;;;5002028;28;20502;-66
2024/03/25 12:54:43;;;;;;;4.60;1.65;;;;;;;;;;4995815;28;20506;-61
2024/03/25 12:57:08;;;;;;;3.63;1.77;;;;;;;;;;4989057;28;20118;-65
2024/03/25 12:59:34;;;;;;;3.80;1.85;;;;;;;;;;4998750;28;20117;-62
2024/03/25 13:01:59;;;;;;;3.90;1.55;;;;;;;;;;4999407;28;20042;-60
2024/03/25 13:04:25;;;;;;;3.15;1.70;;;;;;;;;;4996088;28;20061;-61
2024/03/25 13:06:50;;;;;;;2.45;1.80;;;;;;;;;;4987249;28;20049;-62
2024/03/25 13:09:16;;;;;;;4.93;1.83;;;;;;;;;;4998737;28;20036;-61
2024/03/25 13:11:41;;;;;;;5.38;1.83;;;;;;;;;;5006041;28;20030;-64
2024/03/25 13:14:07;;;;;;;3.05;2.03;;;;;;;;;;5006079;28;20532;-66
2024/03/25 13:16:32;;;;;;;4.15;2.10;;;;;;;;;;5004469;28;21507;-68
2024/03/25 13:18:58;;;;;;;4.15;1.52;;;;;;;;;;4987762;28;20619;-63
2024/03/25 13:21:25;;;;;;;3.75;2.08;;;;;;;;;;4998639;28;20034;-65
2024/03/25 13:23:50;;;;;;;3.58;1.95;;;;;;;;;;4997802;28;21193;-61
2024/03/25 13:26:15;;;;;;;2.67;1.50;;;;;;;;;;5005356;28;20057;-62
2024/03/25 13:28:41;;;;;;;3.30;1.70;;;;;;;;;;5007544;28;20053;-60
2024/03/25 13:31:06;;;;;;;3.05;1.52;;;;;;;;;;5007991;28;20034;-63
2024/03/25 13:33:31;;;;;;;3.15;1.90;;;;;;;;;;5030496;28;20470;-65
2024/03/25 13:35:57;;;;;;;2.30;1.50;;;;;;;;;;5006819;28;20096;-60
2024/03/25 13:38:22;;;;;;;4.28;1.70;;;;;;;;;;4992970;28;20034;-64
2024/03/25 13:40:47;;;;;;;4.43;1.73;;;;;;;;;;5000656;28;20241;-61
2024/03/25 13:43:12;;;;;;;3.63;1.70;;;;;;;;;;5006120;28;20033;-59
2024/03/25 13:45:40;;;;;;;3.63;1.80;;;;;;;;;;5004434;28;20042;-59
2024/03/25 13:48:05;;;;;;;2.97;1.52;;;;;;;;;;5003646;28;20026;-64
2024/03/25 13:50:31;;;;;;;3.40;1.80;;;;;;;;;;5008530;28;20064;-62
2024/03/25 13:52:56;;;;;;;2.60;1.70;;;;;;;;;;5008393;28;20042;-64
2024/03/25 13:55:24;;;;;;;3.72;1.65;;;;;;;;;;5008252;28;20107;-61
2024/03/25 13:57:50;;;;;;;2.97;1.60;;;;;;;;;;5004822;28;20553;-64
2024/03/25 14:00:15;;;;;;;3.20;1.60;;;;;;;;;;5007627;28;20053;-61
2024/03/25 14:02:41;;;;;;;5.35;2.17;;;;;;;;;;5005204;28;20049;-64
2024/03/25 14:05:06;;;;;;;7.97;1.77;;;;;;;;;;5001747;28;20070;-64
2024/03/25 14:07:32;;;;;;;3.70;1.70;;;;;;;;;;5013748;28;20062;-62
2024/03/25 14:09:59;;;;;;;4.65;1.88;;;;;;;;;;5004831;28;20038;-61
2024/03/25 14:12:24;;;;;;;3.65;1.80;;;;;;;;;;5003336;28;20042;-61
2024/03/25 14:14:50;;;;;;;3.28;1.58;;;;;;;;;;4996766;28;20038;-62
2024/03/25 14:17:16;;;;;;;3.65;1.80;;;;;;;;;;5004752;28;20038;-62
2024/03/25 14:19:41;;;;;;;2.65;1.58;;;;;;;;;;4998841;28;20035;-61
2024/03/25 14:22:06;;;;;;;3.22;1.75;;;;;;;;;;4995719;28;20038;-64
2024/03/25 14:24:32;;;;;;;2.47;1.55;;;;;;;;;;5008568;28;20030;-61
2024/03/25 14:26:58;;;;;;;3.45;1.60;;;;;;;;;;5009481;28;20041;-64
2024/03/25 14:29:23;;;;;;;4.28;1.65;;;;;;;;;;5005932;28;20110;-61
2024/03/25 14:31:48;;;;;;;4.72;1.55;;;;;;;;;;5003055;28;20540;-62
2024/03/25 14:34:13;;;;;;;3.58;1.63;;;;;;;;;;4999321;28;20030;-61
2024/03/25 14:36:39;;;;;;;3.78;1.73;;;;;;;;;;4994290;28;20038;-64
2024/03/25 14:39:04;;;;;;;3.20;1.50;;;;;;;;;;4987876;28;20046;-62
2024/03/25 14:41:37;;;;;;;3.78;1.50;;;;;;;;;;4999322;28;20042;-61
2024/03/25 14:44:03;;;;;;;3.28;1.67;;;;;;;;;;5003744;28;20516;-61